Time;durP1;ratioP1;P1;durP2;ratioP2;P2;SDS_P1;SDS_P2;PMS_P1;PMS_P2;Temp;Humidity;BMP_temperature;BMP_pressure;BME280_temperature;BME280_humidity;BME280_pressure;Samples;Min_cycle;Max_cycle;Signal;HPM_P1;HPM_P2
2022/04/26 03:36:40;;;;;;;5.00;4.50;;;;;;;8.28;100.00;95438.13;5089366;28;20031;-58
2022/04/26 03:39:06;;;;;;;5.13;4.65;;;;;;;8.28;100.00;95438.94;5081137;28;20383;-58
2022/04/26 03:41:32;;;;;;;4.50;4.07;;;;;;;8.25;100.00;95433.97;5086593;28;20107;-59
2022/04/26 03:43:58;;;;;;;4.57;4.25;;;;;;;8.26;100.00;95438.25;5080047;28;20499;-58
2022/04/26 03:46:24;;;;;;;4.43;3.85;;;;;;;8.26;100.00;95426.94;5080327;28;20070;-58
2022/04/26 03:48:49;;;;;;;4.80;4.20;;;;;;;8.29;100.00;95440.63;5080508;28;20032;-59
2022/04/26 03:51:15;;;;;;;5.45;4.90;;;;;;;8.31;100.00;95443.94;5083393;28;20029;-58
2022/04/26 03:53:40;;;;;;;5.43;4.47;;;;;;;8.34;100.00;95455.13;5083168;28;20028;-58
2022/04/26 03:56:06;;;;;;;3.95;3.65;;;;;;;8.32;100.00;95456.09;5081899;28;20602;-58
2022/04/26 03:58:33;;;;;;;6.22;4.90;;;;;;;8.30;100.00;95451.91;5083509;28;20036;-58
2022/04/26 04:00:58;;;;;;;6.07;4.95;;;;;;;8.27;100.00;95457.44;5088604;28;20028;-58
2022/04/26 04:03:24;;;;;;;4.88;4.53;;;;;;;8.27;100.00;95454.81;5086671;28;20036;-58
2022/04/26 04:05:49;;;;;;;5.13;4.50;;;;;;;8.24;100.00;95463.78;5088829;28;20028;-58
2022/04/26 04:08:15;;;;;;;4.45;3.92;;;;;;;8.24;100.00;95457.72;5091294;28;20093;-58
2022/04/26 04:10:40;;;;;;;5.97;4.60;;;;;;;8.27;100.00;95458.25;5087498;28;20025;-58
2022/04/26 04:13:05;;;;;;;4.80;4.40;;;;;;;8.25;100.00;95462.00;5089422;28;20042;-58
2022/04/26 04:15:31;;;;;;;7.40;5.32;;;;;;;8.27;100.00;95460.88;5087909;28;20021;-58
2022/04/26 04:17:57;;;;;;;4.88;4.55;;;;;;;8.27;100.00;95471.38;5087852;28;20076;-58
2022/04/26 04:20:22;;;;;;;5.28;4.85;;;;;;;8.29;100.00;95474.72;5088121;28;20032;-58
2022/04/26 04:22:53;;;;;;;5.68;5.18;;;;;;;8.29;100.00;95472.09;5088905;28;20040;-58
2022/04/26 04:25:19;;;;;;;5.75;5.18;;;;;;;8.30;100.00;95479.00;5086291;28;20032;-58
2022/04/26 04:27:45;;;;;;;7.07;5.40;;;;;;;8.28;100.00;95475.66;5087867;28;20028;-58
2022/04/26 04:30:11;;;;;;;5.78;5.30;;;;;;;8.27;100.00;95478.41;5087864;28;20039;-58
2022/04/26 04:32:37;;;;;;;5.75;5.15;;;;;;;8.23;100.00;95477.84;5085573;28;20027;-58
2022/04/26 04:35:03;;;;;;;5.45;5.00;;;;;;;8.20;100.00;95483.38;5082542;28;20059;-59
2022/04/26 04:37:29;;;;;;;5.63;5.18;;;;;;;8.23;100.00;95484.91;5085162;28;20556;-58
2022/04/26 04:39:54;;;;;;;5.70;5.10;;;;;;;8.27;100.00;95489.72;5087917;28;20031;-58
2022/04/26 04:42:21;;;;;;;9.20;5.72;;;;;;;8.30;100.00;95486.88;5088528;28;20032;-59
2022/04/26 04:44:46;;;;;;;5.97;5.38;;;;;;;8.30;100.00;95497.34;5088036;28;20044;-58
2022/04/26 04:47:12;;;;;;;6.65;6.00;;;;;;;8.27;100.00;95491.53;5085487;28;20403;-58
2022/04/26 04:49:37;;;;;;;9.95;6.20;;;;;;;8.28;100.00;95495.81;5085604;28;20028;-58
2022/04/26 04:52:03;;;;;;;7.32;6.20;;;;;;;8.30;100.00;95499.13;5088668;28;20027;-58
2022/04/26 04:54:28;;;;;;;6.47;5.88;;;;;;;8.32;100.00;95498.06;5084871;28;20038;-58
2022/04/26 04:56:53;;;;;;;6.53;5.88;;;;;;;8.55;100.00;95497.88;5083820;28;20511;-58
2022/04/26 04:59:19;;;;;;;6.07;5.47;;;;;;;8.45;100.00;95507.47;5083314;28;20043;-58
2022/04/26 05:01:44;;;;;;;5.90;5.40;;;;;;;8.50;100.00;95509.72;5100727;28;20162;-58
2022/04/26 05:04:09;;;;;;;6.40;5.85;;;;;;;8.43;100.00;95509.41;5080590;28;20071;-58
2022/04/26 05:06:35;;;;;;;9.07;5.90;;;;;;;8.42;100.00;95518.22;5083750;28;20403;-58
2022/04/26 05:09:00;;;;;;;6.18;5.57;;;;;;;8.39;100.00;95510.63;5085535;28;20399;-58
2022/04/26 05:11:26;;;;;;;7.22;6.40;;;;;;;8.40;100.00;95515.75;5090077;28;20162;-58
2022/04/26 05:13:51;;;;;;;9.40;6.25;;;;;;;8.38;100.00;95507.16;5081356;28;20029;-58
2022/04/26 05:16:17;;;;;;;6.55;5.95;;;;;;;8.39;100.00;95508.00;5086725;28;20024;-57
2022/04/26 05:18:42;;;;;;;6.65;5.35;;;;;;;8.43;100.00;95517.25;5084003;28;20024;-58
2022/04/26 05:21:13;;;;;;;6.30;5.80;;;;;;;8.44;100.00;95508.44;5086634;28;20446;-58
2022/04/26 05:26:33;;;;;;;6.47;5.68;;;;;;;8.49;100.00;95519.34;5054180;28;20048;-58
2022/04/26 05:28:59;;;;;;;6.20;5.60;;;;;;;8.55;100.00;95526.75;5090433;28;20034;-58
2022/04/26 05:31:24;;;;;;;6.45;5.75;;;;;;;8.59;100.00;95525.50;5087331;28;20047;-58
2022/04/26 05:33:49;;;;;;;8.82;6.15;;;;;;;8.65;100.00;95518.06;5082229;28;20028;-58
2022/04/26 05:36:15;;;;;;;6.88;5.65;;;;;;;8.74;100.00;95520.69;5084443;28;20035;-58
2022/04/26 05:38:40;;;;;;;6.13;5.55;;;;;;;8.79;100.00;95520.31;5085236;28;20027;-58
2022/04/26 05:41:05;;;;;;;6.82;6.22;;;;;;;8.87;100.00;95528.31;5088286;28;20117;-58
2022/04/26 05:43:33;;;;;;;10.95;6.43;;;;;;;8.93;100.00;95534.00;5089257;28;20042;-58
2022/04/26 05:45:59;;;;;;;9.98;6.57;;;;;;;8.97;100.00;95538.03;5082529;28;20419;-58
2022/04/26 05:48:24;;;;;;;8.00;6.00;;;;;;;8.99;100.00;95538.72;5084715;28;20040;-58
2022/04/26 05:50:50;;;;;;;8.13;6.07;;;;;;;9.02;100.00;95541.06;5087754;28;20036;-58
2022/04/26 05:53:15;;;;;;;6.43;5.82;;;;;;;9.01;100.00;95542.84;5085300;28;20116;-58
2022/04/26 05:55:41;;;;;;;7.15;5.82;;;;;;;8.98;100.00;95537.88;5081316;28;20034;-58
2022/04/26 05:58:06;;;;;;;6.75;6.03;;;;;;;9.00;100.00;95537.75;5083765;28;20055;-58
2022/04/26 06:00:31;;;;;;;6.32;5.88;;;;;;;9.01;100.00;95540.22;5086730;28;20063;-58
2022/04/26 06:02:57;;;;;;;8.38;5.88;;;;;;;9.00;100.00;95537.75;5085775;28;20032;-58
2022/04/26 06:05:23;;;;;;;8.70;5.82;;;;;;;9.05;100.00;95543.44;5085316;28;20107;-58
2022/04/26 06:07:48;;;;;;;7.32;6.72;;;;;;;9.13;100.00;95535.69;5086225;28;20023;-58
2022/04/26 06:10:13;;;;;;;7.35;6.20;;;;;;;9.16;100.00;95548.53;5084211;28;20596;-57
2022/04/26 06:12:41;;;;;;;6.78;6.18;;;;;;;9.21;100.00;95544.69;5088543;28;20502;-57
2022/04/26 06:15:08;;;;;;;7.07;5.72;;;;;;;9.25;100.00;95540.81;5081360;28;20051;-57
2022/04/26 06:17:33;;;;;;;8.43;6.88;;;;;;;9.28;100.00;95546.63;5084429;28;20024;-56
2022/04/26 06:19:59;;;;;;;8.80;6.35;;;;;;;9.32;100.00;95552.44;5088410;28;20103;-57
2022/04/26 06:22:24;;;;;;;7.78;6.53;;;;;;;9.32;100.00;95544.53;5085453;28;20499;-57
2022/04/26 06:24:51;;;;;;;10.35;6.55;;;;;;;9.39;100.00;95550.91;5085900;28;20047;-57
2022/04/26 06:27:17;;;;;;;6.97;6.32;;;;;;;9.44;100.00;95546.09;5086221;28;20115;-59
2022/04/26 06:29:43;;;;;;;28.63;7.22;;;;;;;9.46;100.00;95546.78;5080676;28;20032;-58
2022/04/26 06:32:09;;;;;;;6.97;6.38;;;;;;;9.45;100.00;95542.50;5086717;28;20514;-58
2022/04/26 06:34:34;;;;;;;6.68;6.07;;;;;;;9.49;100.00;95544.84;5067675;28;20032;-56
2022/04/26 06:36:59;;;;;;;6.78;6.10;;;;;;;9.46;100.00;95543.31;5077681;28;20039;-57
2022/04/26 06:39:25;;;;;;;6.90;6.20;;;;;;;9.48;100.00;95540.53;5082237;28;20632;-58
2022/04/26 06:41:51;;;;;;;13.15;7.03;;;;;;;9.42;100.00;95542.78;5083853;28;20036;-57
2022/04/26 06:44:17;;;;;;;6.60;5.90;;;;;;;9.44;100.00;95553.97;5081075;28;20097;-57
2022/04/26 06:46:42;;;;;;;6.55;5.95;;;;;;;9.48;100.00;95557.13;5081379;28;20043;-58
2022/04/26 06:49:08;;;;;;;9.48;6.18;;;;;;;9.48;100.00;95551.06;5082548;28;20068;-57
2022/04/26 06:51:35;;;;;;;9.23;5.68;;;;;;;9.46;100.00;95559.06;5080985;28;20028;-58
2022/04/26 06:54:01;;;;;;;12.95;5.50;;;;;;;9.46;100.00;95556.44;5086847;28;20471;-58
2022/04/26 06:56:26;;;;;;;6.05;5.55;;;;;;;9.46;100.00;95561.69;5079420;28;20052;-56
2022/04/26 06:58:51;;;;;;;6.72;6.13;;;;;;;9.60;98.84;95561.28;5080462;28;20020;-57
2022/04/26 07:01:17;;;;;;;10.23;6.22;;;;;;;9.50;100.00;95570.97;5081887;28;20031;-58
2022/04/26 07:03:42;;;;;;;7.30;6.32;;;;;;;9.57;99.95;95571.25;5078847;28;20123;-58
2022/04/26 07:06:08;;;;;;;7.18;6.40;;;;;;;9.69;98.47;95572.78;5081799;28;20031;-58
2022/04/26 07:08:33;;;;;;;7.18;5.78;;;;;;;9.76;96.94;95573.03;5081862;28;20020;-56
2022/04/26 07:10:58;;;;;;;5.78;5.18;;;;;;;9.77;96.70;95564.19;5079340;28;20034;-57
2022/04/26 07:13:24;;;;;;;6.95;5.35;;;;;;;9.60;98.38;95568.31;5087352;28;20578;-58
2022/04/26 07:15:49;;;;;;;5.72;5.22;;;;;;;9.52;99.36;95578.72;5082807;28;20035;-58
2022/04/26 07:18:15;;;;;;;6.65;6.05;;;;;;;9.53;100.00;95581.22;5082158;28;20102;-57
2022/04/26 07:20:44;;;;;;;6.82;6.20;;;;;;;9.53;100.00;95575.97;5076633;28;20462;-57
2022/04/26 07:23:09;;;;;;;6.65;6.05;;;;;;;9.54;100.00;95579.41;5081563;28;20032;-58
2022/04/26 07:25:35;;;;;;;6.43;5.60;;;;;;;9.53;99.59;95583.00;5080659;28;20024;-57
2022/04/26 07:28:00;;;;;;;6.53;5.95;;;;;;;9.48;100.00;95582.59;5090460;28;20028;-57
2022/04/26 07:30:34;;;;;;;6.40;5.80;;;;;;;9.50;100.00;95594.59;5086210;28;20024;-56
2022/04/26 07:35:49;;;;;;;7.07;5.72;;;;;;;9.57;100.00;95592.25;5087236;28;20510;-58
2022/04/26 07:38:14;;;;;;;8.90;6.07;;;;;;;9.62;99.70;95592.72;5087531;28;20031;-58
2022/04/26 07:40:40;;;;;;;6.15;5.60;;;;;;;9.63;100.00;95589.09;5088548;28;20028;-57
2022/04/26 07:43:06;;;;;;;6.78;6.18;;;;;;;9.75;100.00;95595.88;5093594;28;20025;-57
2022/04/26 07:45:32;;;;;;;6.80;6.05;;;;;;;9.82;99.71;95600.56;5090595;28;20116;-55
2022/04/26 07:48:00;;;;;;;7.10;6.40;;;;;;;9.85;100.00;95603.75;5087896;28;20769;-57
2022/04/26 07:50:27;;;;;;;7.32;6.22;;;;;;;9.98;99.84;95602.66;5092562;28;20460;-56
2022/04/26 07:52:53;;;;;;;6.55;5.72;;;;;;;9.97;99.02;95593.91;5089200;28;20036;-56
2022/04/26 07:55:18;;;;;;;7.07;6.47;;;;;;;10.02;98.95;95594.31;5089369;28;20511;-54
2022/04/26 07:57:44;;;;;;;8.60;6.38;;;;;;;10.01;98.59;95594.47;5083210;28;20024;-56
2022/04/26 08:00:11;;;;;;;7.53;6.93;;;;;;;10.02;98.76;95596.94;5084825;28;20582;-57
2022/04/26 08:02:36;;;;;;;7.30;6.60;;;;;;;10.09;99.07;95604.28;5088368;28;20039;-57
2022/04/26 08:05:01;;;;;;;7.45;6.75;;;;;;;10.08;99.42;95607.91;5088297;28;20060;-57
2022/04/26 08:07:31;;;;;;;7.22;6.45;;;;;;;10.08;99.45;95605.25;5079256;28;20078;-58
2022/04/26 08:09:57;;;;;;;6.07;5.60;;;;;;;10.09;99.15;95605.09;5081622;28;20027;-57
2022/04/26 08:12:23;;;;;;;6.75;6.18;;;;;;;10.11;98.85;95610.22;5085556;28;20028;-57
2022/04/26 08:14:48;;;;;;;8.02;7.03;;;;;;;10.16;98.75;95613.25;5086933;28;20020;-56
2022/04/26 08:17:17;;;;;;;7.35;6.65;;;;;;;10.12;98.33;95617.97;5087040;28;20569;-56
2022/04/26 08:19:43;;;;;;;6.95;6.32;;;;;;;10.14;98.23;95618.66;5084068;28;20024;-56
2022/04/26 08:22:08;;;;;;;11.48;6.15;;;;;;;10.21;97.40;95621.56;5085270;28;20030;-56
2022/04/26 08:27:30;;;;;;;9.02;6.97;;;;;;;10.29;96.04;95626.13;5053748;28;20049;-57
2022/04/26 08:30:00;;;;;;;7.43;6.15;;;;;;;10.49;96.22;95621.66;5084545;28;20399;-56
2022/04/26 08:32:29;;;;;;;6.30;5.78;;;;;;;10.72;95.07;95621.31;5075071;28;20036;-57
2022/04/26 08:34:55;;;;;;;14.88;6.05;;;;;;;11.16;94.25;95618.91;5085727;28;20095;-57
2022/04/26 08:37:20;;;;;;;7.25;6.55;;;;;;;12.04;92.86;95620.06;5081898;28;20040;-56
2022/04/26 08:39:48;;;;;;;6.45;5.72;;;;;;;12.75;86.10;95620.03;5084360;28;20020;-57
2022/04/26 08:42:14;;;;;;;5.32;4.90;;;;;;;13.10;84.61;95621.88;5087696;28;20027;-55
2022/04/26 08:44:40;;;;;;;4.22;3.83;;;;;;;13.25;83.06;95622.06;5083269;28;20590;-57
2022/04/26 08:52:49;;;;;;;4.40;4.03;;;;;;;13.37;81.00;95628.72;5084162;28;20595;-57
2022/04/26 08:55:16;;;;;;;4.13;3.80;;;;;;;13.78;78.61;95633.31;5082573;28;20285;-56
2022/04/26 08:57:41;;;;;;;5.72;3.25;;;;;;;14.00;76.72;95623.88;5081254;28;20020;-57
2022/04/26 09:00:11;;;;;;;3.65;3.40;;;;;;;14.36;73.59;95635.13;5075642;28;20036;-57
2022/04/26 09:02:37;;;;;;;3.45;3.15;;;;;;;14.96;72.78;95633.06;5083590;28;20032;-57
2022/04/26 09:05:12;;;;;;;3.30;3.10;;;;;;;15.36;69.32;95620.63;5069920;28;20104;-55
2022/04/26 09:07:39;;;;;;;3.80;3.50;;;;;;;15.00;71.04;95626.41;5083536;28;20024;-57
2022/04/26 09:10:13;;;;;;;5.82;4.15;;;;;;;14.90;70.92;95632.72;5080383;28;20036;-58
2022/04/26 09:13:04;;;;;;;3.60;3.17;;;;;;;14.72;70.06;95632.16;5087288;28;20035;-57
2022/04/26 09:15:54;;;;;;;4.35;3.88;;;;;;;14.63;70.39;95635.75;5078737;28;20105;-57
2022/04/26 09:18:27;;;;;;;3.85;3.50;;;;;;;14.80;69.26;95641.88;5064181;28;20048;-57
2022/04/26 09:21:05;;;;;;;3.97;3.65;;;;;;;14.86;65.74;95636.72;5081119;28;20024;-57
2022/04/26 09:23:32;;;;;;;4.00;3.70;;;;;;;14.95;66.45;95632.22;5086827;28;20425;-56
2022/04/26 09:26:09;;;;;;;5.22;3.58;;;;;;;15.44;64.81;95633.84;5084187;28;20037;-56
2022/04/26 09:28:37;;;;;;;4.05;3.75;;;;;;;16.20;63.86;95626.25;5077308;28;20020;-57
2022/04/26 09:31:25;;;;;;;3.75;3.45;;;;;;;16.13;62.77;95637.56;5085020;28;20034;-57
2022/04/26 09:34:04;;;;;;;4.57;3.17;;;;;;;15.97;63.76;95630.56;5083191;28;20028;-57
2022/04/26 09:36:31;;;;;;;3.53;3.33;;;;;;;15.94;63.40;95633.56;5078564;28;20036;-57
2022/04/26 09:38:58;;;;;;;4.55;3.50;;;;;;;16.19;62.76;95636.03;5083157;28;20458;-57
2022/04/26 09:41:26;;;;;;;4.43;4.10;;;;;;;16.03;61.14;95639.66;5085766;28;20028;-58
2022/04/26 09:44:03;;;;;;;3.75;3.45;;;;;;;16.29;60.52;95631.31;5083106;28;20432;-57
2022/04/26 09:46:40;;;;;;;6.30;3.35;;;;;;;18.00;53.62;95632.31;5078997;28;20044;-57
2022/04/26 09:49:09;;;;;;;4.22;3.83;;;;;;;18.75;49.86;95628.44;5076905;28;20052;-56
2022/04/26 09:51:36;;;;;;;3.90;3.60;;;;;;;19.31;48.74;95635.56;5083140;28;20107;-57
2022/04/26 09:54:02;;;;;;;4.10;3.80;;;;;;;19.81;48.00;95636.38;5085559;28;20032;-57
2022/04/26 09:56:30;;;;;;;4.43;4.10;;;;;;;20.31;44.61;95626.19;5077678;28;20021;-57
2022/04/26 09:58:58;;;;;;;3.97;3.67;;;;;;;20.82;43.75;95629.28;5083338;28;20116;-57
2022/04/26 10:01:29;;;;;;;4.78;3.38;;;;;;;21.26;41.30;95636.78;5079239;28;20035;-57
2022/04/26 10:04:02;;;;;;;4.38;3.70;;;;;;;21.02;40.96;95637.28;5076914;28;20388;-57
2022/04/26 10:06:36;;;;;;;3.50;3.20;;;;;;;21.74;42.27;95640.97;5084052;28;20032;-57
2022/04/26 10:09:07;;;;;;;6.30;2.80;;;;;;;21.67;40.02;95642.88;5086882;28;20039;-57
2022/04/26 10:11:32;;;;;;;3.60;3.30;;;;;;;21.43;40.26;95650.53;5084711;28;20020;-57
2022/04/26 10:14:00;;;;;;;3.78;3.35;;;;;;;21.18;41.89;95638.66;5080818;28;20028;-57
2022/04/26 10:16:26;;;;;;;3.70;3.40;;;;;;;20.72;41.92;95642.22;5082760;28;20495;-57
2022/04/26 10:19:00;;;;;;;5.93;3.30;;;;;;;21.04;40.00;95639.72;5078917;28;20024;-58
2022/04/26 10:21:46;;;;;;;3.72;3.42;;;;;;;20.08;41.38;95642.59;5079574;28;20066;-57
2022/04/26 10:24:13;;;;;;;3.53;3.15;;;;;;;18.64;44.15;95648.47;5080810;28;20418;-57
2022/04/26 10:26:39;;;;;;;2.83;2.63;;;;;;;18.01;45.74;95649.97;5082884;28;20020;-57
2022/04/26 10:29:07;;;;;;;3.40;3.03;;;;;;;19.06;44.92;95637.88;5082576;28;20142;-57
2022/04/26 10:31:35;;;;;;;6.47;3.42;;;;;;;20.56;42.12;95643.47;5082480;28;20563;-58
2022/04/26 10:34:15;;;;;;;4.05;3.30;;;;;;;21.44;40.52;95636.94;5087148;28;20028;-57
2022/04/26 10:36:40;;;;;;;3.10;2.90;;;;;;;21.92;39.03;95645.59;5077040;28;20564;-57
2022/04/26 10:39:06;;;;;;;3.22;3.03;;;;;;;21.69;39.32;95640.78;5079406;28;20113;-58
2022/04/26 10:41:39;;;;;;;4.47;3.22;;;;;;;21.12;40.75;95644.03;5085476;28;20084;-57
2022/04/26 10:44:14;;;;;;;6.88;3.20;;;;;;;20.98;39.14;95638.69;5075874;28;20043;-57
2022/04/26 10:47:09;;;;;;;4.63;3.35;;;;;;;22.07;37.02;95636.44;5077901;28;20521;-57
2022/04/26 10:49:43;;;;;;;3.33;3.13;;;;;;;21.86;38.51;95636.56;5081689;28;20476;-57
2022/04/26 10:52:26;;;;;;;3.17;2.70;;;;;;;22.25;37.28;95630.34;5085053;28;20408;-57
2022/04/26 10:54:55;;;;;;;3.25;2.83;;;;;;;22.02;36.93;95643.28;5076685;28;20037;-57
2022/04/26 10:57:37;;;;;;;3.10;2.90;;;;;;;21.55;37.72;95640.81;5083814;28;20039;-58
2022/04/26 11:00:09;;;;;;;3.70;3.15;;;;;;;21.88;37.95;95649.75;5081207;28;20038;-57
2022/04/26 11:02:40;;;;;;;2.95;2.75;;;;;;;22.11;37.16;95648.38;5078736;28;20056;-57
2022/04/26 11:05:10;;;;;;;5.60;3.08;;;;;;;22.58;36.95;95646.22;5073023;28;20466;-57
2022/04/26 11:07:37;;;;;;;2.95;2.75;;;;;;;23.13;35.02;95639.31;5087514;28;20039;-57
2022/04/26 11:10:04;;;;;;;3.67;2.78;;;;;;;23.28;33.17;95641.66;5076555;28;20526;-57
2022/04/26 11:12:35;;;;;;;4.30;3.22;;;;;;;23.49;35.30;95650.31;5081093;28;20032;-58
2022/04/26 11:15:15;;;;;;;2.83;2.63;;;;;;;24.26;34.02;95643.53;5081331;28;20043;-57
2022/04/26 11:17:43;;;;;;;2.75;2.60;;;;;;;24.30;35.32;95644.72;5082917;28;20038;-58
2022/04/26 11:20:18;;;;;;;5.70;3.20;;;;;;;24.43;34.52;95634.81;5089529;28;20132;-57
2022/04/26 11:22:55;;;;;;;3.17;2.90;;;;;;;24.40;32.49;95637.94;5083539;28;20602;-57
2022/04/26 11:28:12;;;;;;;3.58;2.83;;;;;;;23.98;34.33;95644.91;5085644;28;20040;-57
2022/04/26 11:30:54;;;;;;;3.40;2.47;;;;;;;23.70;33.88;95638.25;5084010;28;20024;-57
2022/04/26 11:33:25;;;;;;;3.50;2.67;;;;;;;24.12;32.26;95644.75;5081124;28;20541;-57
2022/04/26 11:35:54;;;;;;;3.25;2.55;;;;;;;23.73;33.09;95637.81;5084203;28;20373;-58
2022/04/26 11:38:20;;;;;;;3.58;2.80;;;;;;;22.08;35.19;95648.81;5083932;28;20051;-58
2022/04/26 11:40:54;;;;;;;3.35;2.60;;;;;;;21.79;36.11;95651.84;5084163;28;20480;-57
2022/04/26 11:43:23;;;;;;;;;;;;;;;22.64;34.34;95641.84;5082419;28;20646;-56
2022/04/26 11:45:51;;;;;;;2.92;2.63;;;;;;;22.01;35.48;95649.69;5087728;28;19963;-57
2022/04/26 11:48:21;;;;;;;3.20;3.00;;;;;;;20.30;37.09;95645.94;5066066;28;20044;-57
2022/04/26 11:50:49;;;;;;;3.35;2.70;;;;;;;18.96;41.01;95640.06;5084271;28;20093;-57
2022/04/26 11:53:23;;;;;;;3.90;3.15;;;;;;;18.38;42.63;95633.94;5069263;28;20495;-57
2022/04/26 11:55:53;;;;;;;3.20;2.90;;;;;;;20.23;40.72;95630.91;5075785;28;20736;-57
2022/04/26 11:58:33;;;;;;;4.00;2.97;;;;;;;21.14;39.69;95629.44;5081156;28;20039;-56
2022/04/26 12:01:08;;;;;;;2.80;2.60;;;;;;;22.44;35.47;95637.41;5080081;28;20039;-57
2022/04/26 12:03:46;;;;;;;3.53;2.40;;;;;;;21.98;35.26;95628.66;5082953;28;20056;-57
2022/04/26 12:06:13;;;;;;;4.10;2.40;;;;;;;22.72;35.75;95627.31;5081032;28;20279;-57
2022/04/26 12:08:50;;;;;;;2.70;2.40;;;;;;;22.97;34.18;95629.16;5082975;28;20020;-58
2022/04/26 12:11:20;;;;;;;2.63;2.53;;;;;;;22.91;34.20;95619.31;5081546;28;20488;-57
2022/04/26 12:13:58;;;;;;;4.18;2.50;;;;;;;20.81;38.60;95621.47;5081815;28;20107;-57
2022/04/26 12:16:23;;;;;;;2.65;2.47;;;;;;;20.59;39.00;95613.66;5085233;28;20511;-57
2022/04/26 12:18:54;;;;;;;3.30;2.65;;;;;;;20.43;38.58;95614.88;5082028;28;20027;-57
2022/04/26 12:21:22;;;;;;;3.25;2.92;;;;;;;20.64;39.13;95616.50;5086028;28;20031;-57
2022/04/26 12:23:48;;;;;;;8.00;2.65;;;;;;;21.06;38.09;95621.59;5085557;28;20024;-57
2022/04/26 12:26:14;;;;;;;2.75;2.53;;;;;;;21.74;37.30;95617.66;5086339;28;20027;-57
2022/04/26 12:28:47;;;;;;;2.70;2.50;;;;;;;22.24;36.37;95612.63;5088850;28;20053;-57
2022/04/26 12:31:29;;;;;;;2.88;2.65;;;;;;;22.03;35.21;95609.25;5083004;28;20456;-57
2022/04/26 12:34:15;;;;;;;3.58;2.92;;;;;;;21.81;36.88;95608.78;5082312;28;20020;-57
2022/04/26 12:36:58;;;;;;;3.38;3.05;;;;;;;22.86;36.06;95610.03;5086063;28;20040;-57
2022/04/26 12:39:26;;;;;;;3.97;2.60;;;;;;;23.79;33.65;95611.09;5086948;28;20527;-57
2022/04/26 12:41:55;;;;;;;3.08;2.88;;;;;;;23.61;32.32;95604.69;5086011;28;20035;-57
2022/04/26 12:44:23;;;;;;;4.00;2.65;;;;;;;23.53;34.46;95602.31;5086961;28;20052;-57
2022/04/26 12:52:48;;;;;;;3.10;2.90;;;;;;;20.90;38.93;95601.47;5083503;28;20515;-58
2022/04/26 12:55:36;;;;;;;2.80;2.60;;;;;;;20.46;37.53;95599.25;5084794;28;20035;-57
2022/04/26 12:58:09;;;;;;;2.40;2.28;;;;;;;20.70;40.31;95594.28;5086631;28;20143;-57
2022/04/26 13:00:52;;;;;;;2.78;2.55;;;;;;;21.90;37.78;95604.81;5079549;28;20082;-58
2022/04/26 13:03:21;;;;;;;2.65;2.45;;;;;;;22.58;35.73;95597.13;5086930;28;20032;-57
2022/04/26 13:06:09;;;;;;;2.80;2.60;;;;;;;23.16;34.48;95589.69;5087304;28;20051;-58
2022/04/26 13:08:35;;;;;;;2.88;2.30;;;;;;;23.17;35.32;95586.81;5074033;28;20036;-57
2022/04/26 13:11:00;;;;;;;2.95;2.40;;;;;;;23.11;36.63;95581.50;5070745;28;20040;-57
2022/04/26 13:13:29;;;;;;;2.40;2.20;;;;;;;23.21;34.38;95586.34;5086580;28;20028;-57
2022/04/26 13:15:54;;;;;;;2.40;2.20;;;;;;;22.50;34.92;95584.81;5079513;28;20087;-57
2022/04/26 13:18:20;;;;;;;2.38;2.22;;;;;;;21.86;37.09;95584.84;5087628;28;20103;-57
2022/04/26 13:20:46;;;;;;;3.22;2.83;;;;;;;20.39;39.85;95578.88;5084618;28;20095;-57
2022/04/26 13:23:13;;;;;;;2.90;2.70;;;;;;;20.97;40.67;95582.72;5087308;28;20028;-57
2022/04/26 13:25:39;;;;;;;2.67;2.45;;;;;;;20.04;37.04;95574.56;5081744;28;20550;-57
2022/04/26 13:28:06;;;;;;;2.72;2.50;;;;;;;20.83;38.19;95574.72;5088251;28;20028;-57
2022/04/26 13:30:31;;;;;;;2.53;2.33;;;;;;;21.16;37.65;95578.34;5087193;28;20050;-58
2022/04/26 13:32:57;;;;;;;2.38;2.20;;;;;;;21.56;36.63;95572.81;5081619;28;20028;-57
2022/04/26 13:35:23;;;;;;;2.20;2.10;;;;;;;20.91;36.09;95572.88;5087054;28;20028;-57
2022/04/26 13:37:50;;;;;;;2.15;2.05;;;;;;;20.02;39.02;95569.44;5083358;28;20486;-55
2022/04/26 13:40:15;;;;;;;2.30;2.20;;;;;;;20.29;39.24;95564.09;5080858;28;20025;-57
2022/04/26 13:42:40;;;;;;;3.00;2.70;;;;;;;20.57;37.08;95559.53;5074981;28;20158;-57
2022/04/26 13:45:06;;;;;;;3.25;2.20;;;;;;;20.72;36.75;95565.47;5089846;28;20132;-58
2022/04/26 13:47:33;;;;;;;2.60;2.40;;;;;;;20.94;36.29;95561.75;5086213;28;20499;-57
2022/04/26 13:49:58;;;;;;;2.40;2.22;;;;;;;20.11;37.83;95559.34;5080180;28;20024;-57
2022/04/26 13:52:24;;;;;;;2.60;2.30;;;;;;;19.63;38.50;95551.47;5077819;28;20039;-57
2022/04/26 13:54:50;;;;;;;2.50;2.30;;;;;;;19.61;40.18;95546.34;5083717;28;20185;-57
2022/04/26 13:57:16;;;;;;;2.33;2.13;;;;;;;19.43;41.20;95547.72;5075938;28;20028;-56
2022/04/26 13:59:43;;;;;;;2.60;2.40;;;;;;;19.44;39.35;95551.22;5062661;28;20044;-57
2022/04/26 14:02:09;;;;;;;4.55;2.65;;;;;;;19.02;37.52;95546.78;5082321;28;20028;-57
2022/04/26 14:04:34;;;;;;;3.45;2.35;;;;;;;18.32;38.23;95547.56;5086152;28;20032;-57
2022/04/26 14:07:00;;;;;;;6.68;2.30;;;;;;;17.99;39.06;95545.44;5083241;28;20116;-57
2022/04/26 14:09:26;;;;;;;2.40;2.17;;;;;;;17.89;39.58;95545.75;5085120;28;20024;-58
2022/04/26 14:11:54;;;;;;;3.90;2.67;;;;;;;17.68;41.68;95545.75;5084853;28;20035;-56
2022/04/26 14:22:32;;;;;;;2.55;2.35;;;;;;;17.56;42.01;95545.44;5081597;28;20051;-56
2022/04/26 14:25:04;;;;;;;2.58;2.47;;;;;;;17.62;41.37;95547.38;5087884;28;20035;-56
2022/04/26 14:27:31;;;;;;;2.63;2.42;;;;;;;17.80;42.98;95532.78;5087691;28;20032;-52
2022/04/26 14:29:57;;;;;;;5.15;2.92;;;;;;;18.00;42.23;95541.75;5089341;28;20066;-55
2022/04/26 14:32:23;;;;;;;3.53;2.67;;;;;;;18.15;40.50;95538.22;5083491;28;20403;-55
2022/04/26 14:34:48;;;;;;;2.30;2.10;;;;;;;17.68;41.73;95537.78;5078848;28;20032;-54
2022/04/26 14:37:15;;;;;;;2.13;2.03;;;;;;;17.67;40.83;95536.97;5089460;28;20082;-55
2022/04/26 14:39:41;;;;;;;4.70;2.20;;;;;;;17.53;41.51;95537.84;5086149;28;20036;-54
2022/04/26 14:42:08;;;;;;;2.60;2.40;;;;;;;17.81;40.90;95529.91;5087361;28;20024;-55
2022/04/26 14:44:34;;;;;;;2.40;2.00;;;;;;;17.80;41.15;95530.94;5084784;28;20037;-56
2022/04/26 14:47:01;;;;;;;2.40;2.20;;;;;;;17.38;40.24;95535.22;5087809;28;20394;-55
2022/04/26 14:49:27;;;;;;;3.03;2.60;;;;;;;17.24;40.57;95535.09;5087251;28;20032;-55
2022/04/26 14:51:52;;;;;;;4.68;2.35;;;;;;;17.32;40.89;95526.16;5088207;28;20085;-53
2022/04/26 14:54:18;;;;;;;2.42;2.22;;;;;;;17.75;40.98;95533.34;5087904;28;20123;-55
2022/04/26 14:56:44;;;;;;;2.50;2.30;;;;;;;17.27;40.53;95531.22;5089201;28;20024;-56
2022/04/26 14:59:12;;;;;;;2.05;1.95;;;;;;;17.09;41.05;95535.13;5086918;28;20063;-56
2022/04/26 15:01:46;;;;;;;3.53;2.42;;;;;;;17.35;41.84;95531.09;5089221;28;20040;-55
2022/04/26 15:04:11;;;;;;;2.35;2.15;;;;;;;17.56;41.31;95529.47;5084365;28;20127;-55
2022/04/26 15:06:36;;;;;;;2.63;2.35;;;;;;;17.98;40.70;95534.97;5081901;28;20115;-56
2022/04/26 15:11:47;;;;;;;3.38;3.08;;;;;;;18.01;40.55;95537.25;5083102;28;20046;-57
2022/04/26 15:16:56;;;;;;;3.42;2.25;;;;;;;18.05;41.58;95533.22;5082140;28;20106;-57
2022/04/26 15:19:22;;;;;;;3.42;2.60;;;;;;;17.92;40.94;95530.44;5079458;28;20063;-57
2022/04/26 15:21:47;;;;;;;2.53;2.33;;;;;;;17.85;41.12;95530.38;5081575;28;20028;-57
2022/04/26 15:24:13;;;;;;;2.95;2.33;;;;;;;18.08;39.00;95532.03;5078608;28;20125;-57
2022/04/26 15:26:39;;;;;;;2.88;2.50;;;;;;;18.09;38.69;95517.69;5083706;28;20024;-57
2022/04/26 15:29:05;;;;;;;2.40;2.30;;;;;;;18.03;38.95;95524.59;5085458;28;20589;-57
2022/04/26 15:31:31;;;;;;;2.30;2.10;;;;;;;17.82;39.14;95533.41;5088288;28;20117;-57
2022/04/26 15:33:57;;;;;;;3.00;2.72;;;;;;;17.72;39.19;95523.91;5081136;28;20504;-57
2022/04/26 15:36:23;;;;;;;2.17;2.08;;;;;;;17.79;39.41;95523.97;5083370;28;20035;-57
2022/04/26 15:38:49;;;;;;;2.72;2.28;;;;;;;17.82;40.16;95517.44;5087184;28;20016;-57
2022/04/26 15:41:15;;;;;;;4.03;2.00;;;;;;;17.89;38.33;95519.13;5078797;28;20033;-57
2022/04/26 15:43:41;;;;;;;2.08;1.67;;;;;;;18.03;37.16;95513.94;5081454;28;20028;-57
2022/04/26 15:46:08;;;;;;;5.03;2.40;;;;;;;17.86;39.62;95518.69;5087282;28;20028;-57
2022/04/26 15:48:38;;;;;;;2.40;2.30;;;;;;;17.79;41.14;95515.13;5081176;28;20044;-57
2022/04/26 15:51:06;;;;;;;2.28;2.10;;;;;;;17.76;40.36;95514.50;5063406;28;20017;-57